createdAt,value
2022-10-05T00:01:30.393Z,100810.13
2022-10-05T00:04:12.150Z,100804.09
2022-10-05T00:06:39.979Z,100798.03
2022-10-05T00:09:15.245Z,100795.41
2022-10-05T00:11:45.635Z,100797.19
2022-10-05T00:14:18.898Z,100791.97
2022-10-05T00:16:48.075Z,100795.59
2022-10-05T00:19:23.663Z,100788.81
2022-10-05T00:21:51.446Z,100781.78
2022-10-05T00:24:20.499Z,100793.16
2022-10-05T00:26:54.158Z,100792.28
2022-10-05T00:29:25.206Z,100782.00
2022-10-05T00:31:53.453Z,100789.81
2022-10-05T00:34:21.672Z,100797.75
2022-10-05T00:36:49.895Z,100797.84
2022-10-05T00:39:18.592Z,100797.09
2022-10-05T00:42:10.822Z,100796.16
2022-10-05T00:44:49.762Z,100794.34
2022-10-05T00:47:35.663Z,100789.91
2022-10-05T00:50:23.340Z,100783.00
2022-10-05T00:53:06.115Z,100782.97
2022-10-05T00:55:51.036Z,100790.09
2022-10-05T00:58:38.006Z,100780.53
2022-10-05T01:01:13.536Z,100775.31
2022-10-05T01:04:01.572Z,100771.66
2022-10-05T01:06:41.965Z,100773.28
2022-10-05T01:09:22.864Z,100761.91
2022-10-05T01:12:01.510Z,100766.25
2022-10-05T01:14:39.249Z,100767.97
2022-10-05T01:17:20.309Z,100762.69
2022-10-05T01:20:12.868Z,100752.22
2022-10-05T01:23:13.411Z,100757.31
2022-10-05T01:25:57.312Z,100759.97
2022-10-05T01:28:35.450Z,100762.63
2022-10-05T01:31:17.238Z,100769.56
2022-10-05T01:33:55.403Z,100759.97
2022-10-05T01:36:37.358Z,100759.06
2022-10-05T01:39:16.658Z,100757.47
2022-10-05T01:41:59.788Z,100749.75
2022-10-05T01:44:40.598Z,100748.91
2022-10-05T01:47:21.388Z,100749.78
2022-10-05T01:50:00.602Z,100750.75
2022-10-05T01:52:44.250Z,100743.22
2022-10-05T01:55:24.867Z,100734.69
2022-10-05T01:58:11.384Z,100740.88
2022-10-05T02:00:52.589Z,100732.31
2022-10-05T02:03:27.048Z,100723.78
2022-10-05T02:06:01.385Z,100728.25
2022-10-05T02:08:40.404Z,100734.28
2022-10-05T02:11:13.536Z,100730.00
2022-10-05T02:13:47.313Z,100730.91
2022-10-05T02:16:25.878Z,100730.06
2022-10-05T02:19:01.850Z,100730.97
2022-10-05T02:21:34.482Z,100731.88
2022-10-05T02:24:11.405Z,100728.25
2022-10-05T02:26:41.462Z,100734.34
2022-10-05T02:29:14.408Z,100720.50
2022-10-05T02:31:54.716Z,100715.16
2022-10-05T02:34:26.871Z,100718.66
2022-10-05T02:37:20.931Z,100701.19
2022-10-05T02:40:16.606Z,100699.34
2022-10-05T02:42:56.411Z,100689.69
2022-10-05T02:45:41.361Z,100687.06
2022-10-05T02:48:26.023Z,100680.88
2022-10-05T02:51:06.627Z,100668.66
2022-10-05T02:53:46.595Z,100671.25
2022-10-05T02:56:26.384Z,100670.41
2022-10-05T02:59:09.438Z,100674.78
2022-10-05T03:01:47.755Z,100673.03
2022-10-05T03:04:34.213Z,100663.59
2022-10-05T03:07:14.714Z,100670.56
2022-10-05T03:10:00.874Z,100667.06
2022-10-05T03:12:47.427Z,100666.44
2022-10-05T03:15:55.465Z,100663.03
2022-10-05T03:18:45.260Z,100663.13
2022-10-05T03:21:35.492Z,100649.09
2022-10-05T03:24:31.330Z,100638.59
2022-10-05T03:27:12.789Z,100636.84
2022-10-05T03:29:50.495Z,100625.56
2022-10-05T03:32:31.915Z,100631.53
2022-10-05T03:35:10.493Z,100617.41
2022-10-05T03:37:49.003Z,100620.75
2022-10-05T03:40:29.367Z,100622.34
2022-10-05T03:43:19.123Z,100623.34
2022-10-05T03:45:58.474Z,100618.75
2022-10-05T03:48:33.485Z,100617.75
2022-10-05T03:51:08.223Z,100608.88
2022-10-05T03:53:47.663Z,100613.16
2022-10-05T03:56:29.917Z,100609.59
2022-10-05T03:59:08.022Z,100613.03
2022-10-05T04:01:44.745Z,100612.97
2022-10-05T04:04:24.059Z,100622.50
2022-10-05T04:06:57.654Z,100627.69
2022-10-05T04:09:36.527Z,100621.53
2022-10-05T04:12:15.000Z,100624.13
2022-10-05T04:14:48.737Z,100632.06
2022-10-05T04:17:27.576Z,100635.56
2022-10-05T04:20:02.891Z,100642.63
2022-10-05T04:22:40.035Z,100650.31
2022-10-05T04:25:18.063Z,100644.41
2022-10-05T04:27:57.322Z,100635.03
2022-10-05T04:30:25.738Z,100639.53
2022-10-05T04:33:00.390Z,100624.88
2022-10-05T04:35:54.390Z,100626.56
2022-10-05T04:38:47.653Z,100624.81
2022-10-05T04:41:37.675Z,100630.19
2022-10-05T04:44:28.268Z,100632.00
2022-10-05T04:47:22.300Z,100632.22
2022-10-05T04:50:19.820Z,100627.84
2022-10-05T04:53:13.137Z,100621.72
2022-10-05T04:55:56.331Z,100620.88
2022-10-05T04:58:51.208Z,100618.47
2022-10-05T05:01:47.911Z,100618.56
2022-10-05T05:05:00.096Z,100610.72
2022-10-05T05:07:44.646Z,100609.81
2022-10-05T05:10:49.423Z,100608.03
2022-10-05T05:13:58.268Z,100615.88
2022-10-05T05:16:36.135Z,100610.59
2022-10-05T05:19:41.132Z,100614.13
2022-10-05T05:22:25.969Z,100602.81
2022-10-05T05:25:15.742Z,100610.69
2022-10-05T05:27:53.042Z,100610.59
2022-10-05T05:30:30.156Z,100614.91
2022-10-05T05:33:14.986Z,100617.63
2022-10-05T05:36:24.271Z,100615.94
2022-10-05T05:39:17.401Z,100612.59
2022-10-05T05:42:01.800Z,100620.53
2022-10-05T05:44:40.056Z,100621.50
2022-10-05T05:47:20.464Z,100623.31
2022-10-05T05:50:16.556Z,100617.22
2022-10-05T05:52:51.517Z,100616.47
2022-10-05T05:55:29.959Z,100606.84
2022-10-05T05:58:11.007Z,100609.59
2022-10-05T06:00:46.888Z,100608.69
2022-10-05T06:03:24.304Z,100604.44
2022-10-05T06:05:57.949Z,100607.09
2022-10-05T06:08:39.211Z,100606.28
2022-10-05T06:11:22.959Z,100601.03
2022-10-05T06:13:51.857Z,100595.78
2022-10-05T06:16:28.373Z,100600.94
2022-10-05T06:19:05.264Z,100601.78
2022-10-05T06:21:43.205Z,100606.13
2022-10-05T06:24:21.653Z,100597.47
2022-10-05T06:27:23.304Z,100602.78
2022-10-05T06:30:07.007Z,100606.34
2022-10-05T06:33:07.696Z,100594.22
2022-10-05T06:35:57.660Z,100599.47
2022-10-05T06:38:53.501Z,100602.22
2022-10-05T06:41:40.524Z,100605.69
2022-10-05T06:44:16.630Z,100599.66
2022-10-05T06:47:01.669Z,100594.44
2022-10-05T06:50:04.118Z,100598.94
2022-10-05T06:53:29.291Z,100604.13
2022-10-05T06:56:09.318Z,100603.38
2022-10-05T06:59:09.391Z,100610.38
2022-10-05T07:01:55.792Z,100611.31
2022-10-05T07:05:04.374Z,100610.66
2022-10-05T07:07:44.981Z,100606.31
2022-10-05T07:10:31.489Z,100598.50
2022-10-05T07:13:34.631Z,100593.28
2022-10-05T07:16:22.658Z,100604.66
2022-10-05T07:19:10.269Z,100610.75
2022-10-05T07:21:58.039Z,100611.63
2022-10-05T07:24:32.822Z,100608.16
2022-10-05T07:27:21.015Z,100607.25
2022-10-05T07:29:59.257Z,100608.13
2022-10-05T07:32:36.681Z,100607.31
2022-10-05T07:35:36.827Z,100612.53
2022-10-05T07:38:14.873Z,100615.13
2022-10-05T07:40:53.603Z,100614.25
2022-10-05T07:44:00.932Z,100621.22
2022-10-05T07:46:43.609Z,100621.22
2022-10-05T07:49:24.375Z,100617.78
2022-10-05T07:52:00.351Z,100616.00
2022-10-05T07:54:40.473Z,100629.97
2022-10-05T07:57:22.133Z,100621.28
2022-10-05T08:00:01.769Z,100631.72
2022-10-05T08:02:49.016Z,100622.97
2022-10-05T08:05:26.408Z,100641.28
2022-10-05T08:08:06.591Z,100639.53
2022-10-05T08:10:42.837Z,100640.38
2022-10-05T08:13:25.441Z,100636.97
2022-10-05T08:16:03.723Z,100635.22
2022-10-05T08:18:56.446Z,100632.63
2022-10-05T08:21:35.713Z,100637.84
2022-10-05T08:24:15.603Z,100628.25
2022-10-05T08:26:55.363Z,100619.59
2022-10-05T08:29:32.813Z,100623.97
2022-10-05T08:32:06.349Z,100615.31
2022-10-05T08:34:45.895Z,100604.81
2022-10-05T08:37:21.586Z,100610.06
2022-10-05T08:40:00.507Z,100614.44
2022-10-05T08:43:01.919Z,100610.06
2022-10-05T08:45:50.974Z,100612.69
2022-10-05T08:48:59.829Z,100601.31
2022-10-05T08:52:21.490Z,100602.19
2022-10-05T08:55:28.050Z,100595.16
2022-10-05T08:58:36.089Z,100602.13
2022-10-05T09:01:19.172Z,100592.47
2022-10-05T09:04:19.689Z,100597.69
2022-10-05T09:07:40.536Z,100601.06
2022-10-05T09:11:00.928Z,100596.72
2022-10-05T09:14:07.106Z,100594.03
2022-10-05T09:17:04.969Z,100588.84
2022-10-05T09:20:10.401Z,100596.72
2022-10-05T09:23:14.474Z,100592.28
2022-10-05T09:25:57.388Z,100569.56
2022-10-05T09:28:36.463Z,100586.09
2022-10-05T09:31:31.757Z,100586.94
2022-10-05T09:34:52.016Z,100586.03
2022-10-05T09:38:08.285Z,100577.19
2022-10-05T09:41:25.450Z,100576.25
2022-10-05T09:44:33.791Z,100569.19
2022-10-05T09:47:39.012Z,100565.63
2022-10-05T09:50:49.676Z,100562.03
2022-10-05T09:53:54.069Z,100558.41
2022-10-05T09:56:57.304Z,100550.53
2022-10-05T10:00:21.569Z,100550.31
2022-10-05T10:03:20.999Z,100541.53
2022-10-05T10:06:28.697Z,100538.66
2022-10-05T10:09:26.869Z,100540.44
2022-10-05T10:12:29.948Z,100539.63
2022-10-05T10:15:40.266Z,100539.63
2022-10-05T10:18:29.585Z,100529.91
2022-10-05T10:21:33.037Z,100548.28
2022-10-05T10:24:30.645Z,100525.19
2022-10-05T10:27:20.002Z,100539.97
2022-10-05T10:30:27.600Z,100525.84
2022-10-05T10:33:23.194Z,100533.28
2022-10-05T10:36:06.070Z,100525.31
2022-10-05T10:38:58.632Z,100528.78
2022-10-05T10:42:10.183Z,100520.69
2022-10-05T10:45:05.582Z,100526.28
2022-10-05T10:47:50.337Z,100514.69
2022-10-05T10:50:55.393Z,100514.16
2022-10-05T10:54:04.310Z,100512.31
2022-10-05T10:57:06.048Z,100511.34
2022-10-05T11:00:23.399Z,100509.50
2022-10-05T11:03:41.788Z,100510.59
2022-10-05T11:06:50.331Z,100497.66
2022-10-05T11:09:54.772Z,100506.81
2022-10-05T11:13:12.362Z,100497.84
2022-10-05T11:16:26.130Z,100487.31
2022-10-05T11:19:40.517Z,100492.25
2022-10-05T11:22:50.158Z,100488.41
2022-10-05T11:25:56.061Z,100477.06
2022-10-05T11:28:56.467Z,100481.22
2022-10-05T11:32:12.372Z,100465.22
2022-10-05T11:35:31.009Z,100464.69
2022-10-05T11:38:21.838Z,100468.31
2022-10-05T11:41:20.620Z,100459.56
2022-10-05T11:44:38.621Z,100453.94
2022-10-05T11:47:20.030Z,100441.66
2022-10-05T11:49:59.159Z,100424.09
2022-10-05T11:52:40.373Z,100431.22
2022-10-05T11:55:24.519Z,100429.78
2022-10-05T11:57:58.086Z,100415.00
2022-10-05T12:00:36.362Z,100419.56
2022-10-05T12:03:30.223Z,100415.28
2022-10-05T12:06:22.036Z,100408.84
2022-10-05T12:09:10.829Z,100404.69
2022-10-05T12:12:03.569Z,100398.47
2022-10-05T12:14:49.272Z,100395.66
2022-10-05T12:17:29.641Z,100398.22
2022-10-05T12:20:05.394Z,100387.44
2022-10-05T12:22:41.959Z,100394.47
2022-10-05T12:25:26.107Z,100385.19
2022-10-05T12:28:00.063Z,100375.66
2022-10-05T12:30:53.998Z,100372.94
2022-10-05T12:33:34.244Z,100377.75
2022-10-05T12:36:11.142Z,100366.88
2022-10-05T12:38:47.015Z,100364.56
2022-10-05T12:41:25.350Z,100367.25
2022-10-05T12:44:13.404Z,100359.97
2022-10-05T12:46:58.417Z,100371.19
2022-10-05T12:49:57.607Z,100363.28
2022-10-05T12:52:46.911Z,100354.91
2022-10-05T12:55:26.157Z,100370.22
2022-10-05T12:58:13.103Z,100369.00
2022-10-05T13:00:57.183Z,100386.03
2022-10-05T13:03:30.290Z,100364.50
2022-10-05T13:06:15.633Z,100369.44
2022-10-05T13:08:51.933Z,100359.63
2022-10-05T13:11:33.347Z,100369.28
2022-10-05T13:14:17.881Z,100349.44
2022-10-05T13:16:55.382Z,100350.75
2022-10-05T13:19:39.991Z,100349.84
2022-10-05T13:22:27.295Z,100336.22
2022-10-05T13:25:17.472Z,100338.66
2022-10-05T13:27:51.991Z,100326.34
2022-10-05T13:30:22.009Z,100323.28
2022-10-05T13:33:00.152Z,100321.72
2022-10-05T13:35:44.338Z,100329.03
2022-10-05T13:38:36.665Z,100325.38
2022-10-05T13:41:23.763Z,100316.72
2022-10-05T13:44:13.864Z,100324.16
2022-10-05T13:46:49.142Z,100321.69
2022-10-05T13:49:28.831Z,100326.31
2022-10-05T13:52:11.953Z,100327.66
2022-10-05T13:54:50.862Z,100329.31
2022-10-05T13:57:45.034Z,100312.88
2022-10-05T14:00:19.460Z,100319.56
2022-10-05T14:02:53.567Z,100315.38
2022-10-05T14:05:24.699Z,100309.94
2022-10-05T14:07:56.481Z,100309.31
2022-10-05T14:10:39.241Z,100310.50
2022-10-05T14:13:22.328Z,100301.56
2022-10-05T14:16:20.498Z,100316.44
2022-10-05T14:18:55.956Z,100309.66
2022-10-05T14:21:26.308Z,100301.28
2022-10-05T14:23:57.134Z,100308.59
2022-10-05T14:26:35.795Z,100308.13
2022-10-05T14:29:17.937Z,100288.81
2022-10-05T14:31:55.230Z,100289.47
2022-10-05T14:34:31.913Z,100289.00
2022-10-05T14:37:09.941Z,100279.78
2022-10-05T14:39:42.405Z,100284.59
2022-10-05T14:42:19.189Z,100283.38
2022-10-05T14:45:00.147Z,100270.88
2022-10-05T14:47:32.009Z,100269.28
2022-10-05T14:50:16.655Z,100259.16
2022-10-05T14:52:59.317Z,100267.00
2022-10-05T14:56:17.055Z,100272.34
2022-10-05T14:59:29.737Z,100263.16
2022-10-05T15:02:28.945Z,100269.69
2022-10-05T15:05:03.631Z,100263.34
2022-10-05T15:07:42.482Z,100250.91
2022-10-05T15:10:32.674Z,100256.41
2022-10-05T15:13:11.877Z,100261.00
2022-10-05T15:15:49.839Z,100263.13
2022-10-05T15:18:36.230Z,100266.84
2022-10-05T15:21:33.449Z,100258.94
2022-10-05T15:24:09.334Z,100261.59
2022-10-05T15:26:50.962Z,100267.25
2022-10-05T15:29:41.997Z,100258.41
2022-10-05T15:32:41.441Z,100272.59
2022-10-05T15:35:36.929Z,100263.94
2022-10-05T15:38:21.150Z,100269.56
2022-10-05T15:41:03.575Z,100274.41
2022-10-05T15:43:47.457Z,100280.41
2022-10-05T15:46:23.559Z,100282.88
2022-10-05T15:49:16.149Z,100290.38
2022-10-05T15:52:00.522Z,100283.53
2022-10-05T15:54:59.297Z,100289.69
2022-10-05T15:57:43.302Z,100293.63
2022-10-05T16:00:14.696Z,100294.19
2022-10-05T16:02:52.138Z,100294.66
2022-10-05T16:06:06.400Z,100296.97
2022-10-05T16:09:10.303Z,100307.66
2022-10-05T16:11:58.426Z,100310.84
2022-10-05T16:14:59.750Z,100315.06
2022-10-05T16:17:50.350Z,100319.84
2022-10-05T16:20:36.464Z,100322.09
2022-10-05T16:23:21.282Z,100317.56
2022-10-05T16:26:09.586Z,100321.66
2022-10-05T16:28:55.266Z,100315.22
2022-10-05T16:31:31.596Z,100308.34
2022-10-05T16:34:17.089Z,100322.00
2022-10-05T16:36:59.332Z,100331.84
2022-10-05T16:39:51.484Z,100331.00
2022-10-05T16:42:49.944Z,100338.97
2022-10-05T16:45:44.764Z,100343.59
2022-10-05T16:48:24.622Z,100349.13
2022-10-05T16:51:25.467Z,100350.94
2022-10-05T16:54:09.941Z,100358.97
2022-10-05T16:56:46.144Z,100365.34
2022-10-05T17:00:03.783Z,100364.72
2022-10-05T17:02:53.044Z,100371.81
2022-10-05T17:05:47.587Z,100373.56
2022-10-05T17:09:10.515Z,100389.66
2022-10-05T17:11:58.518Z,100391.63
2022-10-05T17:14:50.130Z,100390.66
2022-10-05T17:17:52.940Z,100411.66
2022-10-05T17:20:42.969Z,100412.44
2022-10-05T17:23:50.483Z,100418.06
2022-10-05T17:26:56.658Z,100430.22
2022-10-05T17:29:49.768Z,100429.47
2022-10-05T17:32:37.201Z,100448.03
2022-10-05T17:35:19.295Z,100443.69
2022-10-05T17:38:15.045Z,100451.72
2022-10-05T17:41:20.651Z,100458.91
2022-10-05T17:44:19.513Z,100465.06
2022-10-05T17:46:51.701Z,100471.28
2022-10-05T17:49:27.358Z,100486.88
2022-10-05T17:52:23.705Z,100492.41
2022-10-05T17:55:40.475Z,100509.34
2022-10-05T17:59:01.346Z,100524.28
2022-10-05T18:01:45.306Z,100518.22
2022-10-05T18:05:33.341Z,100526.19
2022-10-05T18:08:48.427Z,100533.31
2022-10-05T18:11:40.747Z,100527.16
2022-10-05T18:14:19.649Z,100514.88
2022-10-05T18:17:00.072Z,100529.72
2022-10-05T18:19:32.224Z,100508.72
2022-10-05T18:22:26.248Z,100516.72
2022-10-05T18:25:08.145Z,100508.84
2022-10-05T18:28:19.496Z,100518.38
2022-10-05T18:31:16.405Z,100517.59
2022-10-05T18:34:13.621Z,100520.16
2022-10-05T18:37:12.923Z,100512.31
2022-10-05T18:40:17.801Z,100525.34
2022-10-05T18:43:02.244Z,100532.56
2022-10-05T18:45:42.448Z,100531.66
2022-10-05T18:48:28.051Z,100538.63
2022-10-05T18:51:07.523Z,100533.41
2022-10-05T18:53:47.230Z,100543.91
2022-10-05T18:56:28.634Z,100545.63
2022-10-05T18:59:19.632Z,100542.09
2022-10-05T19:02:08.229Z,100534.19
2022-10-05T19:04:57.460Z,100525.44
2022-10-05T19:07:43.749Z,100532.44
2022-10-05T19:10:28.897Z,100528.06
2022-10-05T19:13:17.795Z,100536.81
2022-10-05T19:16:00.444Z,100538.59
2022-10-05T19:18:57.183Z,100542.13
2022-10-05T19:21:40.398Z,100552.63
2022-10-05T19:24:31.240Z,100550.91
2022-10-05T19:27:38.440Z,100556.16
2022-10-05T19:30:22.959Z,100558.78
2022-10-05T19:33:21.535Z,100550.88
2022-10-05T19:36:11.529Z,100556.13
2022-10-05T19:39:05.887Z,100556.19
2022-10-05T19:41:54.781Z,100566.56
2022-10-05T19:44:47.461Z,100563.94
2022-10-05T19:47:35.321Z,100559.56
2022-10-05T19:50:28.005Z,100568.31
2022-10-05T19:53:16.907Z,100557.72
2022-10-05T19:55:49.720Z,100552.44
2022-10-05T19:58:21.749Z,100556.81
2022-10-05T20:00:57.454Z,100553.28
2022-10-05T20:03:29.298Z,100549.78
2022-10-05T20:05:59.582Z,100552.34
2022-10-05T20:08:39.345Z,100553.25
2022-10-05T20:11:16.115Z,100554.13
2022-10-05T20:13:46.981Z,100558.44
2022-10-05T20:16:47.286Z,100565.47
2022-10-05T20:20:20.482Z,100571.56
2022-10-05T20:22:49.699Z,100563.72
2022-10-05T20:25:33.368Z,100561.09
2022-10-05T20:28:02.918Z,100568.09
2022-10-05T20:30:34.083Z,100569.78
2022-10-05T20:33:10.307Z,100571.50
2022-10-05T20:35:38.853Z,100569.78
2022-10-05T20:38:06.628Z,100578.53
2022-10-05T20:40:37.284Z,100575.91
2022-10-05T20:43:08.067Z,100581.06
2022-10-05T20:45:36.433Z,100586.28
2022-10-05T20:48:05.915Z,100586.25
2022-10-05T20:50:34.072Z,100591.44
2022-10-05T20:53:01.820Z,100599.41
2022-10-05T20:55:31.196Z,100588.91
2022-10-05T20:58:02.210Z,100604.66
2022-10-05T21:00:53.320Z,100615.16
2022-10-05T21:03:22.795Z,100619.47
2022-10-05T21:05:50.625Z,100615.03
2022-10-05T21:08:18.816Z,100615.16
2022-10-05T21:10:47.012Z,100623.97
2022-10-05T21:13:14.792Z,100626.56
2022-10-05T21:15:42.672Z,100627.44
2022-10-05T21:18:10.820Z,100641.50
2022-10-05T21:20:41.338Z,100638.03
2022-10-05T21:23:09.086Z,100645.94
2022-10-05T21:25:39.118Z,100641.56
2022-10-05T21:28:09.079Z,100641.69
2022-10-05T21:30:36.981Z,100654.00
2022-10-05T21:33:04.740Z,100661.84
2022-10-05T21:35:32.939Z,100662.75
2022-10-05T21:38:02.125Z,100666.34
2022-10-05T21:40:30.162Z,100670.69
2022-10-05T21:42:58.380Z,100674.19
2022-10-05T21:45:29.588Z,100685.69
2022-10-05T21:47:57.901Z,100690.94
2022-10-05T21:50:25.877Z,100680.44
2022-10-05T21:52:54.752Z,100683.09
2022-10-05T21:55:24.236Z,100706.69
2022-10-05T21:57:52.438Z,100694.47
2022-10-05T22:00:20.591Z,100682.22
2022-10-05T22:02:49.524Z,100699.69
2022-10-05T22:05:18.140Z,100696.19
2022-10-05T22:07:46.058Z,100695.31
2022-10-05T22:10:14.745Z,100704.06
2022-10-05T22:12:46.243Z,100706.66
2022-10-05T22:15:14.684Z,100720.75
2022-10-05T22:17:43.265Z,100764.59
2022-10-05T22:20:14.441Z,100787.44
2022-10-05T22:22:42.279Z,100807.34
2022-10-05T22:25:17.398Z,100820.22
2022-10-05T22:27:49.110Z,100838.94
2022-10-05T22:30:17.807Z,100844.00
2022-10-05T22:32:45.625Z,100850.59
2022-10-05T22:35:13.630Z,100862.47
2022-10-05T22:37:41.419Z,100868.28
2022-10-05T22:40:11.440Z,100882.91
2022-10-05T22:42:40.515Z,100895.00
2022-10-05T22:45:10.279Z,100897.53
2022-10-05T22:47:38.041Z,100902.28
2022-10-05T22:50:07.587Z,100913.63
2022-10-05T22:52:35.415Z,100904.94
2022-10-05T22:55:03.675Z,100923.16
2022-10-05T22:57:38.036Z,100928.06
2022-10-05T23:00:10.378Z,100920.19
2022-10-05T23:02:39.839Z,100924.03
2022-10-05T23:05:10.812Z,100930.00
2022-10-05T23:07:41.831Z,100931.75
2022-10-05T23:10:14.660Z,100932.25
2022-10-05T23:12:43.591Z,100934.97
2022-10-05T23:15:13.348Z,100927.78
2022-10-05T23:17:41.354Z,100936.47
2022-10-05T23:20:10.317Z,100944.53
2022-10-05T23:22:38.902Z,100943.69
2022-10-05T23:25:08.690Z,100947.13
2022-10-05T23:27:38.310Z,100938.72
2022-10-05T23:30:10.261Z,100943.09
2022-10-05T23:32:42.098Z,100956.84
2022-10-05T23:35:13.167Z,100963.13
2022-10-05T23:37:44.043Z,100958.09
2022-10-05T23:40:14.271Z,100965.22
2022-10-05T23:42:42.659Z,100960.00
2022-10-05T23:45:12.199Z,100960.97
2022-10-05T23:47:41.541Z,100964.53
2022-10-05T23:50:10.082Z,100968.13
2022-10-05T23:52:37.965Z,100981.16
2022-10-05T23:55:07.284Z,100970.03
2022-10-05T23:57:35.283Z,100982.31
